createdAt,value
2017-09-24T00:00:51.258Z,40.60
2017-09-24T00:03:19.609Z,44.65
2017-09-24T00:05:47.151Z,42.90
2017-09-24T00:08:17.252Z,43.85
2017-09-24T00:10:44.816Z,42.70
2017-09-24T00:13:12.351Z,43.33
2017-09-24T00:15:39.888Z,42.73
2017-09-24T00:18:08.347Z,43.08
2017-09-24T00:20:35.888Z,41.63
2017-09-24T00:23:03.418Z,47.00
2017-09-24T00:25:31.422Z,45.17
2017-09-24T00:27:58.952Z,43.20
2017-09-24T00:30:26.488Z,40.92
2017-09-24T00:32:54.824Z,39.90
2017-09-24T00:35:22.359Z,42.13
2017-09-24T00:37:49.894Z,40.47
2017-09-24T00:40:17.469Z,38.22
2017-09-24T00:42:45.020Z,40.20
2017-09-24T00:45:12.552Z,40.97
2017-09-24T00:47:40.906Z,37.37
2017-09-24T00:50:08.446Z,39.85
2017-09-24T00:52:35.983Z,36.50
2017-09-24T00:55:03.551Z,37.50
2017-09-24T00:57:31.091Z,37.33
2017-09-24T00:59:58.626Z,36.30
2017-09-24T01:02:26.186Z,35.33
2017-09-24T01:04:53.718Z,35.47
2017-09-24T01:07:21.254Z,35.20
2017-09-24T01:09:48.840Z,36.27
2017-09-24T01:12:16.708Z,38.20
2017-09-24T01:14:44.238Z,41.40
2017-09-24T01:17:11.804Z,39.20
2017-09-24T01:19:39.339Z,35.40
2017-09-24T01:22:06.871Z,35.17
2017-09-24T01:24:34.452Z,36.73
2017-09-24T01:27:02.514Z,38.93
2017-09-24T01:29:30.814Z,38.70
2017-09-24T01:31:58.394Z,35.70
2017-09-24T01:34:26.692Z,37.97
2017-09-24T01:36:54.226Z,35.13
2017-09-24T01:39:21.803Z,36.03
2017-09-24T01:41:49.337Z,37.53
2017-09-24T01:44:16.874Z,38.50
2017-09-24T01:46:44.436Z,37.30
2017-09-24T01:49:13.668Z,37.50
2017-09-24T01:51:41.202Z,39.47
2017-09-24T01:54:09.064Z,37.33
2017-09-24T01:56:36.618Z,40.27
2017-09-24T01:59:04.157Z,41.70
2017-09-24T02:01:31.729Z,41.03
2017-09-24T02:03:59.259Z,39.17
2017-09-24T02:06:26.795Z,38.23
2017-09-24T02:08:54.363Z,40.67
2017-09-24T02:11:21.905Z,40.80
2017-09-24T02:13:49.437Z,36.42
2017-09-24T02:16:17.019Z,40.83
2017-09-24T02:18:44.563Z,38.90
2017-09-24T02:21:12.099Z,42.30
2017-09-24T02:23:39.663Z,45.80
2017-09-24T02:26:07.966Z,44.10
2017-09-24T02:28:36.084Z,45.45
2017-09-24T02:31:03.659Z,43.97
2017-09-24T02:33:31.191Z,45.20
2017-09-24T02:35:58.724Z,45.73
2017-09-24T02:38:26.327Z,39.30
2017-09-24T02:40:53.863Z,42.33
2017-09-24T02:43:21.391Z,43.37
2017-09-24T02:45:49.903Z,37.20
2017-09-24T02:48:17.443Z,40.73
2017-09-24T02:50:44.974Z,39.77
2017-09-24T02:53:12.539Z,36.35
2017-09-24T02:55:40.831Z,37.90
2017-09-24T02:58:08.376Z,38.13
2017-09-24T03:00:36.727Z,38.10
2017-09-24T03:03:04.267Z,39.53
2017-09-24T03:05:31.798Z,37.77
2017-09-24T03:07:59.373Z,38.40
2017-09-24T03:10:27.679Z,39.53
2017-09-24T03:12:55.215Z,39.30
2017-09-24T03:15:22.775Z,40.90
2017-09-24T03:17:50.324Z,36.80
2017-09-24T03:20:17.858Z,39.40
2017-09-24T03:22:45.451Z,43.35
2017-09-24T03:25:15.384Z,44.55
2017-09-24T03:27:42.931Z,47.80
2017-09-24T03:30:10.799Z,48.28
2017-09-24T03:32:39.096Z,47.03
2017-09-24T03:35:06.631Z,50.50
2017-09-24T03:37:34.215Z,52.03
2017-09-24T03:40:01.753Z,52.13
2017-09-24T03:42:29.299Z,50.00
2017-09-24T03:44:56.887Z,40.43
2017-09-24T03:47:24.420Z,40.83
2017-09-24T03:49:51.952Z,39.10
2017-09-24T03:52:19.506Z,41.17
2017-09-24T03:54:47.808Z,42.27
2017-09-24T03:57:16.456Z,41.55
2017-09-24T03:59:44.019Z,39.87
2017-09-24T04:02:11.547Z,38.50
2017-09-24T04:04:39.080Z,39.60
2017-09-24T04:07:06.671Z,39.13
2017-09-24T04:09:34.209Z,38.07
2017-09-24T04:12:01.743Z,35.80
2017-09-24T04:14:29.387Z,36.47
2017-09-24T04:16:56.972Z,36.13
2017-09-24T04:19:24.508Z,34.27
2017-09-24T04:21:52.077Z,35.40
2017-09-24T04:24:20.366Z,36.65
2017-09-24T04:26:48.664Z,34.93
2017-09-24T04:29:16.515Z,37.45
2017-09-24T04:31:44.308Z,34.50
2017-09-24T04:34:11.839Z,37.50
2017-09-24T04:36:39.411Z,35.47
2017-09-24T04:39:06.939Z,35.10
2017-09-24T04:41:34.463Z,34.72
2017-09-24T04:44:02.059Z,35.20
2017-09-24T04:46:29.591Z,35.03
2017-09-24T04:48:57.129Z,33.93
2017-09-24T04:51:24.712Z,34.80
2017-09-24T04:53:52.242Z,36.50
2017-09-24T04:56:19.776Z,35.58
2017-09-24T04:58:47.331Z,35.83
2017-09-24T05:01:16.547Z,33.50
2017-09-24T05:03:44.079Z,36.30
2017-09-24T05:06:12.406Z,31.42
2017-09-24T05:08:39.936Z,33.17
2017-09-24T05:11:07.472Z,35.78
2017-09-24T05:13:35.047Z,33.90
2017-09-24T05:16:02.579Z,32.30
2017-09-24T05:18:30.102Z,33.45
2017-09-24T05:20:57.651Z,30.97
2017-09-24T05:23:25.183Z,34.63
2017-09-24T05:25:52.712Z,31.60
2017-09-24T05:28:20.269Z,29.87
2017-09-24T05:30:47.798Z,32.20
2017-09-24T05:33:17.141Z,32.28
2017-09-24T05:35:44.747Z,33.77
2017-09-24T05:38:12.275Z,33.10
2017-09-24T05:40:39.817Z,30.42
2017-09-24T05:43:07.384Z,30.67
2017-09-24T05:45:35.686Z,30.30
2017-09-24T05:48:03.232Z,29.47
2017-09-24T05:50:31.767Z,29.27
2017-09-24T05:52:59.295Z,30.33
2017-09-24T05:55:26.831Z,28.10
2017-09-24T05:57:55.324Z,29.83
2017-09-24T06:00:23.614Z,31.57
2017-09-24T06:02:51.147Z,33.57
2017-09-24T06:05:19.470Z,30.30
2017-09-24T06:07:47.011Z,32.30
2017-09-24T06:10:16.321Z,32.10
2017-09-24T06:12:44.003Z,31.83
2017-09-24T06:15:16.523Z,31.17
2017-09-24T06:17:44.058Z,31.33
2017-09-24T06:20:11.635Z,32.40
2017-09-24T06:22:39.175Z,31.57
2017-09-24T06:25:06.816Z,31.60
2017-09-24T06:27:34.522Z,31.12
2017-09-24T06:30:02.857Z,29.67
2017-09-24T06:32:30.404Z,30.10
2017-09-24T06:34:58.603Z,28.70
2017-09-24T06:37:26.140Z,31.30
2017-09-24T06:39:53.680Z,31.57
2017-09-24T06:42:21.269Z,30.47
2017-09-24T06:44:48.799Z,33.50
2017-09-24T06:47:17.261Z,32.63
2017-09-24T06:49:44.851Z,32.93
2017-09-24T06:52:12.647Z,32.73
2017-09-24T06:54:40.238Z,31.90
2017-09-24T06:57:07.935Z,33.70
2017-09-24T06:59:35.692Z,33.03
2017-09-24T07:02:03.358Z,33.27
2017-09-24T07:04:31.111Z,32.63
2017-09-24T07:06:58.660Z,30.53
2017-09-24T07:09:26.968Z,30.20
2017-09-24T07:11:54.523Z,29.35
2017-09-24T07:14:22.051Z,29.93
2017-09-24T07:16:50.355Z,29.83
2017-09-24T07:19:17.932Z,28.70
2017-09-24T07:21:45.467Z,30.20
2017-09-24T07:24:25.519Z,28.62
2017-09-24T07:29:36.931Z,33.57
2017-09-24T07:32:04.470Z,31.98
2017-09-24T07:34:32.075Z,29.25
2017-09-24T07:37:00.187Z,31.43
2017-09-24T07:39:27.722Z,29.08
2017-09-24T07:41:55.279Z,27.23
2017-09-24T07:44:22.859Z,28.50
2017-09-24T07:46:50.390Z,28.55
2017-09-24T07:49:17.924Z,28.97
2017-09-24T07:51:45.495Z,28.00
2017-09-24T07:54:14.479Z,29.48
2017-09-24T07:56:42.012Z,27.20
2017-09-24T07:59:10.397Z,27.90
2017-09-24T08:01:37.963Z,27.60
2017-09-24T08:04:05.500Z,27.02
2017-09-24T08:06:33.087Z,29.50
2017-09-24T08:09:00.623Z,28.53
2017-09-24T08:11:28.263Z,27.33
2017-09-24T08:13:55.820Z,26.50
2017-09-24T08:16:23.359Z,29.08
2017-09-24T08:18:50.895Z,27.00
2017-09-24T08:21:18.461Z,26.57
2017-09-24T08:23:45.991Z,26.70
2017-09-24T08:26:24.368Z,25.75
2017-09-24T08:31:37.034Z,24.00
2017-09-24T08:34:04.579Z,25.90
2017-09-24T08:36:32.132Z,23.67
2017-09-24T08:39:01.099Z,23.07
2017-09-24T08:41:29.054Z,22.80
2017-09-24T08:43:56.827Z,24.27
2017-09-24T08:46:36.205Z,24.77
2017-09-24T08:49:06.025Z,24.10
2017-09-24T08:51:37.407Z,23.65
2017-09-24T08:54:07.131Z,21.80
2017-09-24T08:56:36.824Z,23.92
2017-09-24T08:59:04.534Z,24.07
2017-09-24T09:01:32.218Z,22.85
2017-09-24T09:03:59.792Z,22.10
2017-09-24T09:06:31.165Z,21.98
2017-09-24T09:09:00.368Z,21.57
2017-09-24T09:11:28.125Z,20.67
2017-09-24T09:13:57.695Z,18.33
2017-09-24T09:16:25.967Z,19.10
2017-09-24T09:18:54.740Z,17.43
2017-09-24T09:21:34.248Z,16.40
2017-09-24T09:24:01.807Z,16.20
2017-09-24T09:26:30.632Z,17.92
2017-09-24T09:28:59.164Z,15.30
2017-09-24T09:31:26.803Z,15.60
2017-09-24T09:33:55.218Z,14.90
2017-09-24T09:36:23.521Z,17.57
2017-09-24T09:38:54.902Z,19.17
2017-09-24T09:41:25.613Z,17.87
2017-09-24T09:43:53.251Z,18.55
2017-09-24T09:49:27.970Z,20.63
2017-09-24T09:51:55.557Z,18.58
2017-09-24T09:54:23.867Z,19.50
2017-09-24T09:56:51.427Z,17.63
2017-09-24T09:59:19.157Z,18.57
2017-09-24T10:01:46.701Z,18.50
2017-09-24T10:04:16.560Z,18.20
2017-09-24T10:06:47.095Z,17.80
2017-09-24T10:09:28.066Z,18.13
2017-09-24T10:11:55.623Z,19.03
2017-09-24T10:14:23.940Z,19.80
2017-09-24T10:16:52.286Z,19.53
2017-09-24T10:19:20.040Z,19.87
2017-09-24T10:21:48.294Z,22.30
2017-09-24T10:24:16.422Z,21.40
2017-09-24T10:26:43.997Z,21.70
2017-09-24T10:29:24.044Z,20.77
2017-09-24T10:32:09.179Z,23.70
2017-09-24T10:34:36.719Z,20.40
2017-09-24T10:37:04.251Z,22.00
2017-09-24T10:39:31.908Z,22.15
2017-09-24T10:41:59.863Z,21.90
2017-09-24T10:44:27.425Z,21.00
2017-09-24T10:46:55.761Z,20.57
2017-09-24T10:49:24.158Z,20.27
2017-09-24T10:51:51.712Z,21.63
2017-09-24T10:54:19.310Z,19.98
2017-09-24T10:56:47.623Z,20.67
2017-09-24T10:59:16.313Z,19.77
2017-09-24T11:01:43.945Z,20.63
2017-09-24T11:04:11.517Z,19.80
2017-09-24T11:06:39.086Z,19.63
2017-09-24T11:09:06.712Z,18.53
2017-09-24T11:11:36.263Z,20.13
2017-09-24T11:14:03.856Z,22.33
2017-09-24T11:16:31.498Z,24.70
2017-09-24T11:18:59.076Z,22.57
2017-09-24T11:21:26.656Z,23.00
2017-09-24T11:23:55.032Z,23.90
2017-09-24T11:26:22.582Z,22.85
2017-09-24T11:28:50.922Z,23.53
2017-09-24T11:31:18.510Z,22.30
2017-09-24T11:33:46.081Z,22.60
2017-09-24T11:36:16.265Z,20.23
2017-09-24T11:38:43.835Z,19.63
2017-09-24T11:41:11.402Z,19.10
2017-09-24T11:43:39.114Z,17.80
2017-09-24T11:46:07.496Z,19.70
2017-09-24T11:48:35.057Z,20.50
2017-09-24T11:51:02.626Z,19.07
2017-09-24T11:53:30.220Z,19.70
2017-09-24T11:55:57.771Z,16.40
2017-09-24T11:58:25.340Z,15.97
2017-09-24T12:00:52.916Z,15.77
2017-09-24T12:03:20.483Z,15.00
2017-09-24T12:05:48.048Z,13.17
2017-09-24T12:08:16.509Z,15.20
2017-09-24T12:10:44.081Z,17.57
2017-09-24T12:13:11.643Z,17.27
2017-09-24T12:15:39.231Z,17.60
2017-09-24T12:18:07.531Z,16.33
2017-09-24T12:20:35.071Z,17.17
2017-09-24T12:23:03.512Z,16.90
2017-09-24T12:25:31.077Z,17.50
2017-09-24T12:27:58.620Z,16.03
2017-09-24T12:30:26.220Z,19.37
2017-09-24T12:32:53.762Z,18.53
2017-09-24T12:35:21.296Z,18.97
2017-09-24T12:37:48.879Z,20.03
2017-09-24T12:40:17.323Z,20.02
2017-09-24T12:42:44.861Z,17.47
2017-09-24T12:45:12.423Z,19.80
2017-09-24T12:47:39.958Z,18.63
2017-09-24T12:50:08.255Z,16.23
2017-09-24T12:52:35.864Z,15.13
2017-09-24T12:55:03.399Z,16.97
2017-09-24T12:57:30.939Z,17.33
2017-09-24T12:59:58.515Z,16.30
2017-09-24T13:02:26.060Z,14.38
2017-09-24T13:04:53.604Z,15.27
2017-09-24T13:07:21.932Z,15.13
2017-09-24T13:09:49.472Z,13.70
2017-09-24T13:12:17.004Z,13.77
2017-09-24T13:14:45.059Z,14.52
2017-09-24T13:17:13.515Z,19.00
2017-09-24T13:19:41.047Z,19.00
2017-09-24T13:22:08.738Z,16.50
2017-09-24T13:24:36.293Z,17.50
2017-09-24T13:27:03.831Z,17.43
2017-09-24T13:29:31.457Z,17.63
2017-09-24T13:31:59.037Z,18.63
2017-09-24T13:34:26.592Z,17.97
2017-09-24T13:36:54.192Z,16.97
2017-09-24T13:39:21.724Z,16.53
2017-09-24T13:41:49.315Z,16.50
2017-09-24T13:44:16.875Z,18.67
2017-09-24T13:46:44.423Z,17.80
2017-09-24T13:49:11.959Z,18.13
2017-09-24T13:51:39.519Z,16.75
2017-09-24T13:54:07.059Z,17.67
2017-09-24T13:56:34.601Z,17.90
2017-09-24T13:59:02.444Z,17.23
2017-09-24T14:01:29.980Z,16.42
2017-09-24T14:03:57.511Z,15.67
2017-09-24T14:06:25.851Z,17.55
2017-09-24T14:08:53.395Z,16.10
2017-09-24T14:11:20.929Z,14.98
2017-09-24T14:13:49.251Z,16.45
2017-09-24T14:16:16.779Z,15.30
2017-09-24T14:18:44.316Z,16.10
2017-09-24T14:21:11.903Z,15.53
2017-09-24T14:23:39.468Z,14.87
2017-09-24T14:26:07.091Z,13.50
2017-09-24T14:28:34.712Z,13.73
2017-09-24T14:31:02.250Z,12.40
2017-09-24T14:33:29.800Z,13.63
2017-09-24T14:35:57.410Z,13.90
2017-09-24T14:38:25.758Z,13.30
2017-09-24T14:40:53.295Z,13.87
2017-09-24T14:43:20.919Z,14.23
2017-09-24T14:45:48.459Z,13.98
2017-09-24T14:48:17.172Z,13.77
2017-09-24T14:50:45.511Z,14.40
2017-09-24T14:53:30.164Z,17.50
2017-09-24T14:58:42.628Z,17.47
2017-09-24T15:01:10.978Z,17.23
2017-09-24T15:03:38.586Z,18.23
2017-09-24T15:06:06.152Z,19.47
2017-09-24T15:08:33.700Z,17.47
2017-09-24T15:11:01.233Z,17.77
2017-09-24T15:13:28.832Z,16.90
2017-09-24T15:15:56.364Z,18.50
2017-09-24T15:18:24.840Z,18.70
2017-09-24T15:20:53.207Z,17.73
2017-09-24T15:23:21.500Z,17.56
2017-09-24T15:25:52.206Z,16.40
2017-09-24T15:28:19.787Z,16.75
2017-09-24T15:30:47.571Z,16.40
2017-09-24T15:33:17.198Z,17.08
2017-09-24T15:35:44.814Z,16.60
2017-09-24T15:38:12.348Z,17.93
2017-09-24T15:40:39.879Z,17.47
2017-09-24T15:43:07.467Z,18.77
2017-09-24T15:45:35.012Z,17.70
2017-09-24T15:48:02.629Z,17.00
2017-09-24T15:50:30.419Z,18.07
2017-09-24T15:52:57.972Z,19.63
2017-09-24T15:55:25.514Z,19.17
2017-09-24T15:57:53.851Z,17.87
2017-09-24T16:00:21.411Z,18.70
2017-09-24T16:02:48.948Z,24.57
2017-09-24T16:05:17.333Z,22.80
2017-09-24T16:07:44.896Z,23.60
2017-09-24T16:10:12.440Z,20.30
2017-09-24T16:12:40.000Z,21.10
2017-09-24T16:15:07.595Z,19.20
2017-09-24T16:17:35.148Z,21.00
2017-09-24T16:20:02.720Z,23.03
2017-09-24T16:22:30.255Z,21.00
2017-09-24T16:24:57.812Z,19.60
2017-09-24T16:27:25.421Z,20.50
2017-09-24T16:29:53.764Z,20.30
2017-09-24T16:32:21.644Z,20.60
2017-09-24T16:34:49.253Z,20.13
2017-09-24T16:37:17.553Z,20.50
2017-09-24T16:39:45.087Z,20.93
2017-09-24T16:42:14.379Z,21.50
2017-09-24T16:44:42.682Z,21.60
2017-09-24T16:47:10.213Z,20.10
2017-09-24T16:49:38.562Z,20.07
2017-09-24T16:52:06.692Z,19.70
2017-09-24T16:54:34.231Z,19.53
2017-09-24T16:57:02.581Z,22.73
2017-09-24T16:59:30.189Z,21.50
2017-09-24T17:01:57.755Z,22.37
2017-09-24T17:04:25.322Z,22.60
2017-09-24T17:06:52.857Z,23.43
2017-09-24T17:09:20.391Z,24.33
2017-09-24T17:11:48.922Z,23.70
2017-09-24T17:14:16.640Z,26.45
2017-09-24T17:16:44.187Z,23.63
2017-09-24T17:19:11.747Z,24.77
2017-09-24T17:21:39.288Z,23.20
2017-09-24T17:24:06.835Z,24.23
2017-09-24T17:26:34.399Z,23.35
2017-09-24T17:29:01.931Z,21.97
2017-09-24T17:31:29.467Z,21.85
2017-09-24T17:33:57.863Z,22.33
2017-09-24T17:36:25.403Z,26.90
2017-09-24T17:38:53.724Z,26.40
2017-09-24T17:41:21.285Z,26.27
2017-09-24T17:43:48.819Z,27.23
2017-09-24T17:46:16.403Z,26.60
2017-09-24T17:48:45.651Z,29.10
2017-09-24T17:51:15.418Z,29.50
2017-09-24T17:53:43.147Z,29.07
2017-09-24T17:56:11.501Z,28.60
2017-09-24T17:58:39.035Z,29.60
2017-09-24T18:01:06.581Z,27.87
2017-09-24T18:03:34.143Z,27.20
2017-09-24T18:06:01.693Z,30.30
2017-09-24T18:08:29.229Z,29.13
2017-09-24T18:10:57.575Z,28.20
2017-09-24T18:13:25.120Z,26.23
2017-09-24T18:15:52.651Z,27.50
2017-09-24T18:18:21.020Z,28.75
2017-09-24T18:20:48.551Z,29.03
2017-09-24T18:23:16.523Z,28.93
2017-09-24T18:25:44.082Z,28.40
2017-09-24T18:28:12.378Z,28.73
2017-09-24T18:30:39.919Z,26.43
2017-09-24T18:33:08.247Z,30.08
2017-09-24T18:35:35.782Z,27.83
2017-09-24T18:38:03.395Z,28.20
2017-09-24T18:40:30.976Z,28.30
2017-09-24T18:42:59.283Z,28.65
2017-09-24T18:45:26.811Z,29.13
2017-09-24T18:47:54.379Z,28.63
2017-09-24T18:50:21.910Z,29.17
2017-09-24T18:52:49.447Z,30.80
2017-09-24T18:55:17.534Z,27.00
2017-09-24T18:57:45.067Z,26.87
2017-09-24T19:00:12.607Z,24.70
2017-09-24T19:02:40.196Z,26.63
2017-09-24T19:05:07.740Z,27.90
2017-09-24T19:07:35.386Z,25.80
2017-09-24T19:10:03.260Z,28.63
2017-09-24T19:12:30.872Z,27.33
2017-09-24T19:14:58.427Z,24.87
2017-09-24T19:17:26.028Z,25.90
2017-09-24T19:19:53.636Z,26.70
2017-09-24T19:22:21.174Z,26.40
2017-09-24T19:24:49.166Z,26.97
2017-09-24T19:27:16.734Z,27.23
2017-09-24T19:29:44.478Z,28.17
2017-09-24T19:32:12.058Z,26.60
2017-09-24T19:34:39.659Z,27.57
2017-09-24T19:37:08.022Z,27.50
2017-09-24T19:39:35.784Z,25.27
2017-09-24T19:42:03.411Z,26.33
2017-09-24T19:44:31.028Z,28.20
2017-09-24T19:46:58.691Z,28.37
2017-09-24T19:49:26.263Z,29.50
2017-09-24T19:51:53.958Z,27.90
2017-09-24T19:54:21.745Z,28.60
2017-09-24T19:56:50.500Z,31.83
2017-09-24T19:59:18.136Z,29.03
2017-09-24T20:01:46.491Z,26.97
2017-09-24T20:04:16.497Z,28.00
2017-09-24T20:06:44.152Z,30.07
2017-09-24T20:09:11.745Z,30.53
2017-09-24T20:11:40.051Z,29.02
2017-09-24T20:14:07.585Z,28.63
2017-09-24T20:16:35.945Z,28.50
2017-09-24T20:19:03.479Z,28.53
2017-09-24T20:21:31.166Z,27.27
2017-09-24T20:23:59.796Z,29.10
2017-09-24T20:26:28.146Z,31.00
2017-09-24T20:28:55.709Z,31.93
2017-09-24T20:31:24.900Z,31.07
2017-09-24T20:33:53.237Z,33.07
2017-09-24T20:36:20.788Z,32.18
2017-09-24T20:38:48.356Z,31.57
2017-09-24T20:41:17.241Z,30.83
2017-09-24T20:43:44.831Z,34.37
2017-09-24T20:46:12.397Z,31.90
2017-09-24T20:48:39.952Z,31.83
2017-09-24T20:51:07.626Z,32.03
2017-09-24T20:53:36.004Z,32.20
2017-09-24T20:56:03.603Z,34.00
2017-09-24T20:58:31.152Z,34.13
2017-09-24T21:00:58.725Z,36.03
2017-09-24T21:03:26.274Z,34.10
2017-09-24T21:05:53.822Z,33.10
2017-09-24T21:08:21.443Z,31.50
2017-09-24T21:10:49.245Z,31.70
2017-09-24T21:13:17.553Z,30.67
2017-09-24T21:15:45.936Z,32.73
2017-09-24T21:18:15.323Z,32.90
2017-09-24T21:20:42.859Z,37.90
2017-09-24T21:23:10.435Z,34.57
2017-09-24T21:25:37.971Z,32.60
2017-09-24T21:28:06.271Z,33.33
2017-09-24T21:30:33.833Z,33.27
2017-09-24T21:33:01.363Z,33.77
2017-09-24T21:35:28.895Z,35.20
2017-09-24T21:37:56.475Z,34.80
2017-09-24T21:40:24.007Z,37.57
2017-09-24T21:42:51.549Z,33.58
2017-09-24T21:45:19.109Z,34.70
2017-09-24T21:47:46.643Z,37.10
2017-09-24T21:50:24.528Z,33.50
2017-09-24T21:56:52.211Z,37.10
2017-09-24T21:59:20.204Z,34.30
2017-09-24T22:01:47.746Z,33.65
2017-09-24T22:04:16.435Z,33.25
2017-09-24T22:06:44.734Z,33.00
2017-09-24T22:09:12.267Z,31.00
2017-09-24T22:11:40.011Z,30.90
2017-09-24T22:14:07.557Z,29.90
2017-09-24T22:16:35.097Z,30.80
2017-09-24T22:19:02.679Z,34.70
2017-09-24T22:21:30.219Z,36.80
2017-09-24T22:23:57.755Z,36.10
2017-09-24T22:26:25.311Z,33.57
2017-09-24T22:28:53.615Z,34.73
2017-09-24T22:31:21.150Z,38.47
2017-09-24T22:33:48.707Z,36.70
2017-09-24T22:36:16.447Z,35.70
2017-09-24T22:38:43.982Z,32.27
2017-09-24T22:41:11.600Z,32.97
2017-09-24T22:43:39.141Z,33.87
2017-09-24T22:46:07.435Z,35.30
2017-09-24T22:48:34.995Z,36.03
2017-09-24T22:51:02.527Z,35.28
2017-09-24T22:53:30.056Z,36.10
2017-09-24T22:55:57.639Z,33.80
2017-09-24T22:58:25.171Z,31.20
2017-09-24T23:00:52.722Z,31.53
2017-09-24T23:03:20.299Z,32.80
2017-09-24T23:05:47.840Z,32.03
2017-09-24T23:08:17.226Z,32.78
2017-09-24T23:10:44.787Z,33.50
2017-09-24T23:13:12.323Z,31.90
2017-09-24T23:15:40.624Z,31.77
2017-09-24T23:18:08.388Z,32.93
2017-09-24T23:20:35.919Z,32.30
2017-09-24T23:23:04.217Z,32.63
2017-09-24T23:25:31.798Z,32.00
2017-09-24T23:27:59.336Z,32.13
2017-09-24T23:30:26.871Z,28.70
2017-09-24T23:32:54.428Z,31.02
2017-09-24T23:35:21.960Z,31.07
2017-09-24T23:37:49.487Z,28.83
2017-09-24T23:40:17.048Z,30.40
2017-09-24T23:42:44.579Z,31.83
2017-09-24T23:45:13.809Z,30.87
2017-09-24T23:47:41.392Z,30.30
2017-09-24T23:50:08.919Z,29.77
2017-09-24T23:52:36.464Z,31.10
2017-09-24T23:55:04.020Z,29.70
2017-09-24T23:57:32.316Z,30.10
2017-09-24T23:59:59.851Z,27.87
